sensor_id;sensor_type;location;lat;lon;timestamp;temperature;humidity
14489;DHT22;7330;50.804;4.550;2024-03-07T00:00:27;8.20;99.90
14489;DHT22;7330;50.804;4.550;2024-03-07T00:05:21;8.20;99.90
14489;DHT22;7330;50.804;4.550;2024-03-07T00:12:45;8.20;99.90
14489;DHT22;7330;50.804;4.550;2024-03-07T00:15:13;8.20;99.90
14489;DHT22;7330;50.804;4.550;2024-03-07T00:17:40;8.10;99.90
14489;DHT22;7330;50.804;4.550;2024-03-07T00:22:39;8.10;99.90
14489;DHT22;7330;50.804;4.550;2024-03-07T00:25:06;8.10;99.90
14489;DHT22;7330;50.804;4.550;2024-03-07T00:27:34;8.10;99.90
14489;DHT22;7330;50.804;4.550;2024-03-07T00:32:29;8.10;99.90
14489;DHT22;7330;50.804;4.550;2024-03-07T00:35:00;8.00;99.90
14489;DHT22;7330;50.804;4.550;2024-03-07T00:37:28;8.10;99.90
14489;DHT22;7330;50.804;4.550;2024-03-07T00:44:50;8.00;99.90
14489;DHT22;7330;50.804;4.550;2024-03-07T00:47:17;8.00;99.90
14489;DHT22;7330;50.804;4.550;2024-03-07T00:52:13;8.00;99.90
14489;DHT22;7330;50.804;4.550;2024-03-07T00:59:34;7.90;99.90
14489;DHT22;7330;50.804;4.550;2024-03-07T01:02:01;7.90;99.90
14489;DHT22;7330;50.804;4.550;2024-03-07T01:06:58;7.80;99.90
14489;DHT22;7330;50.804;4.550;2024-03-07T01:11:55;7.80;99.90
14489;DHT22;7330;50.804;4.550;2024-03-07T01:16:49;7.70;99.90
14489;DHT22;7330;50.804;4.550;2024-03-07T01:21:43;7.70;99.90
14489;DHT22;7330;50.804;4.550;2024-03-07T01:24:09;7.70;99.90
14489;DHT22;7330;50.804;4.550;2024-03-07T01:26:36;7.70;99.90
14489;DHT22;7330;50.804;4.550;2024-03-07T01:29:04;7.70;99.90
14489;DHT22;7330;50.804;4.550;2024-03-07T01:31:32;7.70;99.90
14489;DHT22;7330;50.804;4.550;2024-03-07T01:33:59;7.70;99.90
14489;DHT22;7330;50.804;4.550;2024-03-07T01:38:53;7.70;99.90
14489;DHT22;7330;50.804;4.550;2024-03-07T01:43:46;7.60;99.90
14489;DHT22;7330;50.804;4.550;2024-03-07T01:46:15;7.60;99.90
14489;DHT22;7330;50.804;4.550;2024-03-07T01:51:09;7.60;99.90
14489;DHT22;7330;50.804;4.550;2024-03-07T01:56:03;7.50;99.90
14489;DHT22;7330;50.804;4.550;2024-03-07T02:05:53;7.50;99.90
14489;DHT22;7330;50.804;4.550;2024-03-07T02:10:47;7.50;99.90
14489;DHT22;7330;50.804;4.550;2024-03-07T02:13:15;7.50;99.90
14489;DHT22;7330;50.804;4.550;2024-03-07T02:15:41;7.50;99.90
14489;DHT22;7330;50.804;4.550;2024-03-07T02:20:36;7.50;99.90
14489;DHT22;7330;50.804;4.550;2024-03-07T02:23:04;7.40;99.90
14489;DHT22;7330;50.804;4.550;2024-03-07T02:28:18;7.40;99.90
14489;DHT22;7330;50.804;4.550;2024-03-07T02:33:12;7.40;99.90
14489;DHT22;7330;50.804;4.550;2024-03-07T02:35:40;7.40;99.90
14489;DHT22;7330;50.804;4.550;2024-03-07T02:38:08;7.40;99.90
14489;DHT22;7330;50.804;4.550;2024-03-07T02:43:02;7.30;99.90
14489;DHT22;7330;50.804;4.550;2024-03-07T02:50:24;7.30;99.90
14489;DHT22;7330;50.804;4.550;2024-03-07T02:55:19;7.30;99.90
14489;DHT22;7330;50.804;4.550;2024-03-07T02:57:46;7.30;99.90
14489;DHT22;7330;50.804;4.550;2024-03-07T03:00:13;7.30;99.90
14489;DHT22;7330;50.804;4.550;2024-03-07T03:02:46;7.30;99.90
14489;DHT22;7330;50.804;4.550;2024-03-07T03:07:40;7.20;99.90
14489;DHT22;7330;50.804;4.550;2024-03-07T03:22:27;7.20;99.90
14489;DHT22;7330;50.804;4.550;2024-03-07T03:24:54;7.10;99.90
14489;DHT22;7330;50.804;4.550;2024-03-07T03:27:21;7.10;99.90
14489;DHT22;7330;50.804;4.550;2024-03-07T03:32:17;7.10;99.90
14489;DHT22;7330;50.804;4.550;2024-03-07T03:34:43;7.10;99.90
14489;DHT22;7330;50.804;4.550;2024-03-07T03:39:38;7.00;99.90
14489;DHT22;7330;50.804;4.550;2024-03-07T03:42:08;7.00;99.90
14489;DHT22;7330;50.804;4.550;2024-03-07T03:49:29;7.00;99.90
14489;DHT22;7330;50.804;4.550;2024-03-07T03:51:56;7.00;99.90
14489;DHT22;7330;50.804;4.550;2024-03-07T03:56:51;6.90;99.90
14489;DHT22;7330;50.804;4.550;2024-03-07T03:59:18;6.90;99.90
14489;DHT22;7330;50.804;4.550;2024-03-07T04:06:39;6.80;99.90
14489;DHT22;7330;50.804;4.550;2024-03-07T04:09:06;6.80;99.90
14489;DHT22;7330;50.804;4.550;2024-03-07T04:11:33;6.80;99.90
14489;DHT22;7330;50.804;4.550;2024-03-07T04:16:29;6.80;99.90
14489;DHT22;7330;50.804;4.550;2024-03-07T04:18:56;6.70;99.90
14489;DHT22;7330;50.804;4.550;2024-03-07T04:23:51;6.70;99.90
14489;DHT22;7330;50.804;4.550;2024-03-07T04:33:41;6.70;99.90
14489;DHT22;7330;50.804;4.550;2024-03-07T04:38:37;6.60;99.90
14489;DHT22;7330;50.804;4.550;2024-03-07T04:41:04;6.60;99.90
14489;DHT22;7330;50.804;4.550;2024-03-07T04:45:58;6.50;99.90
14489;DHT22;7330;50.804;4.550;2024-03-07T04:55:47;6.50;99.90
14489;DHT22;7330;50.804;4.550;2024-03-07T04:58:14;6.50;99.90
14489;DHT22;7330;50.804;4.550;2024-03-07T05:03:08;6.50;99.90
14489;DHT22;7330;50.804;4.550;2024-03-07T05:08:04;6.50;99.90
14489;DHT22;7330;50.804;4.550;2024-03-07T05:17:53;6.50;99.90
14489;DHT22;7330;50.804;4.550;2024-03-07T05:20:21;6.40;99.90
14489;DHT22;7330;50.804;4.550;2024-03-07T05:25:16;6.40;99.90
14489;DHT22;7330;50.804;4.550;2024-03-07T05:27:44;6.40;99.90
14489;DHT22;7330;50.804;4.550;2024-03-07T05:30:11;6.40;99.90
14489;DHT22;7330;50.804;4.550;2024-03-07T05:35:07;6.40;99.90
14489;DHT22;7330;50.804;4.550;2024-03-07T05:40:07;6.40;99.90
14489;DHT22;7330;50.804;4.550;2024-03-07T05:42:34;6.40;99.90
14489;DHT22;7330;50.804;4.550;2024-03-07T05:47:28;6.40;99.90
14489;DHT22;7330;50.804;4.550;2024-03-07T05:54:50;6.50;99.90
14489;DHT22;7330;50.804;4.550;2024-03-07T05:59:44;6.50;99.90
14489;DHT22;7330;50.804;4.550;2024-03-07T06:02:11;6.50;99.90
14489;DHT22;7330;50.804;4.550;2024-03-07T06:04:40;6.50;99.90
14489;DHT22;7330;50.804;4.550;2024-03-07T06:07:08;6.60;99.90
14489;DHT22;7330;50.804;4.550;2024-03-07T06:09:36;6.60;99.90
14489;DHT22;7330;50.804;4.550;2024-03-07T06:12:05;6.60;99.90
14489;DHT22;7330;50.804;4.550;2024-03-07T06:17:01;6.60;99.90
14489;DHT22;7330;50.804;4.550;2024-03-07T06:19:28;6.60;99.90
14489;DHT22;7330;50.804;4.550;2024-03-07T06:24:23;6.70;99.90
14489;DHT22;7330;50.804;4.550;2024-03-07T06:29:27;6.70;99.90
14489;DHT22;7330;50.804;4.550;2024-03-07T06:31:54;6.80;99.90
14489;DHT22;7330;50.804;4.550;2024-03-07T06:34:21;6.80;99.90
14489;DHT22;7330;50.804;4.550;2024-03-07T06:36:48;6.80;99.90
14489;DHT22;7330;50.804;4.550;2024-03-07T06:39:14;6.80;99.90
14489;DHT22;7330;50.804;4.550;2024-03-07T06:41:41;6.80;99.90
14489;DHT22;7330;50.804;4.550;2024-03-07T06:46:39;6.80;99.90
14489;DHT22;7330;50.804;4.550;2024-03-07T06:49:06;6.80;99.90
14489;DHT22;7330;50.804;4.550;2024-03-07T06:51:35;6.90;99.90
14489;DHT22;7330;50.804;4.550;2024-03-07T06:56:29;6.90;99.90
14489;DHT22;7330;50.804;4.550;2024-03-07T06:58:56;6.90;99.90
14489;DHT22;7330;50.804;4.550;2024-03-07T07:03:52;7.00;99.90
14489;DHT22;7330;50.804;4.550;2024-03-07T07:13:42;7.00;99.90
14489;DHT22;7330;50.804;4.550;2024-03-07T07:21:06;6.90;99.90
14489;DHT22;7330;50.804;4.550;2024-03-07T07:23:36;6.90;99.90
14489;DHT22;7330;50.804;4.550;2024-03-07T07:35:52;6.90;99.90
14489;DHT22;7330;50.804;4.550;2024-03-07T07:38:20;6.90;99.90
14489;DHT22;7330;50.804;4.550;2024-03-07T07:43:15;6.90;99.90
14489;DHT22;7330;50.804;4.550;2024-03-07T07:45:41;6.90;99.90
14489;DHT22;7330;50.804;4.550;2024-03-07T07:48:08;6.90;99.90
14489;DHT22;7330;50.804;4.550;2024-03-07T07:50:37;7.00;99.90
14489;DHT22;7330;50.804;4.550;2024-03-07T07:58:01;7.00;99.90
14489;DHT22;7330;50.804;4.550;2024-03-07T08:00:29;7.00;99.90
14489;DHT22;7330;50.804;4.550;2024-03-07T08:05:23;7.00;99.90
14489;DHT22;7330;50.804;4.550;2024-03-07T08:07:50;7.00;99.90
14489;DHT22;7330;50.804;4.550;2024-03-07T08:12:45;7.10;99.90
14489;DHT22;7330;50.804;4.550;2024-03-07T08:25:08;7.20;99.90
14489;DHT22;7330;50.804;4.550;2024-03-07T08:27:36;7.20;99.90
14489;DHT22;7330;50.804;4.550;2024-03-07T08:30:03;7.30;99.90
14489;DHT22;7330;50.804;4.550;2024-03-07T08:34:59;7.30;99.90
14489;DHT22;7330;50.804;4.550;2024-03-07T08:39:54;7.30;99.90
14489;DHT22;7330;50.804;4.550;2024-03-07T08:42:22;7.30;99.90
14489;DHT22;7330;50.804;4.550;2024-03-07T08:47:16;7.40;99.90
14489;DHT22;7330;50.804;4.550;2024-03-07T08:49:43;7.40;99.90
14489;DHT22;7330;50.804;4.550;2024-03-07T08:52:09;7.40;99.90
14489;DHT22;7330;50.804;4.550;2024-03-07T08:59:35;7.50;99.90
14489;DHT22;7330;50.804;4.550;2024-03-07T09:02:02;7.50;99.90
14489;DHT22;7330;50.804;4.550;2024-03-07T09:04:31;7.50;99.90
14489;DHT22;7330;50.804;4.550;2024-03-07T09:09:25;7.60;99.90
14489;DHT22;7330;50.804;4.550;2024-03-07T09:31:40;7.90;99.90
14489;DHT22;7330;50.804;4.550;2024-03-07T09:34:07;8.00;99.90
14489;DHT22;7330;50.804;4.550;2024-03-07T09:36:34;8.10;99.90
14489;DHT22;7330;50.804;4.550;2024-03-07T09:39:01;8.20;99.90
14489;DHT22;7330;50.804;4.550;2024-03-07T09:43:55;8.30;99.90
14489;DHT22;7330;50.804;4.550;2024-03-07T09:46:22;8.50;99.90
14489;DHT22;7330;50.804;4.550;2024-03-07T09:48:51;8.50;99.90
14489;DHT22;7330;50.804;4.550;2024-03-07T10:06:20;9.10;99.90
14489;DHT22;7330;50.804;4.550;2024-03-07T10:13:41;9.50;99.90
14489;DHT22;7330;50.804;4.550;2024-03-07T10:16:08;9.60;99.90
14489;DHT22;7330;50.804;4.550;2024-03-07T10:21:03;9.80;99.90
14489;DHT22;7330;50.804;4.550;2024-03-07T10:23:32;9.90;99.90
14489;DHT22;7330;50.804;4.550;2024-03-07T10:28:26;10.10;99.90
14489;DHT22;7330;50.804;4.550;2024-03-07T10:30:54;10.30;99.90
14489;DHT22;7330;50.804;4.550;2024-03-07T10:33:21;10.40;99.90
14489;DHT22;7330;50.804;4.550;2024-03-07T10:35:52;10.50;99.90
14489;DHT22;7330;50.804;4.550;2024-03-07T10:43:16;10.80;99.90
14489;DHT22;7330;50.804;4.550;2024-03-07T10:48:13;10.90;99.90
14489;DHT22;7330;50.804;4.550;2024-03-07T10:50:43;11.00;99.90
14489;DHT22;7330;50.804;4.550;2024-03-07T10:53:15;11.20;99.90
14489;DHT22;7330;50.804;4.550;2024-03-07T10:58:14;11.30;99.90
14489;DHT22;7330;50.804;4.550;2024-03-07T11:00:42;11.40;99.90
14489;DHT22;7330;50.804;4.550;2024-03-07T11:03:12;11.50;99.90
14489;DHT22;7330;50.804;4.550;2024-03-07T11:05:39;11.60;99.90
14489;DHT22;7330;50.804;4.550;2024-03-07T11:10:37;11.80;99.90
14489;DHT22;7330;50.804;4.550;2024-03-07T11:13:06;11.70;99.90
14489;DHT22;7330;50.804;4.550;2024-03-07T11:20:35;11.80;99.90
14489;DHT22;7330;50.804;4.550;2024-03-07T11:25:29;11.80;99.90
14489;DHT22;7330;50.804;4.550;2024-03-07T11:27:56;11.80;99.90
14489;DHT22;7330;50.804;4.550;2024-03-07T11:32:50;11.80;99.90
14489;DHT22;7330;50.804;4.550;2024-03-07T11:35:19;11.80;99.90
14489;DHT22;7330;50.804;4.550;2024-03-07T11:48:06;11.70;99.90
14489;DHT22;7330;50.804;4.550;2024-03-07T11:50:34;11.70;99.90
14489;DHT22;7330;50.804;4.550;2024-03-07T11:53:02;11.80;99.90
14489;DHT22;7330;50.804;4.550;2024-03-07T11:55:31;11.80;99.90
14489;DHT22;7330;50.804;4.550;2024-03-07T11:58:07;11.80;99.90
14489;DHT22;7330;50.804;4.550;2024-03-07T12:05:40;11.80;99.90
14489;DHT22;7330;50.804;4.550;2024-03-07T12:10:36;11.70;99.90
14489;DHT22;7330;50.804;4.550;2024-03-07T12:13:04;11.80;99.90
14489;DHT22;7330;50.804;4.550;2024-03-07T12:15:31;11.80;99.90
14489;DHT22;7330;50.804;4.550;2024-03-07T12:20:27;11.80;99.90
14489;DHT22;7330;50.804;4.550;2024-03-07T12:22:58;11.80;99.90
14489;DHT22;7330;50.804;4.550;2024-03-07T12:28:01;11.90;99.90
14489;DHT22;7330;50.804;4.550;2024-03-07T12:30:31;11.90;99.90
14489;DHT22;7330;50.804;4.550;2024-03-07T12:35:26;12.00;99.90
14489;DHT22;7330;50.804;4.550;2024-03-07T12:37:53;12.00;99.90
14489;DHT22;7330;50.804;4.550;2024-03-07T12:40:22;12.10;99.90
14489;DHT22;7330;50.804;4.550;2024-03-07T12:42:50;12.20;99.90
14489;DHT22;7330;50.804;4.550;2024-03-07T12:50:16;12.30;99.90
14489;DHT22;7330;50.804;4.550;2024-03-07T12:55:10;12.20;99.90
14489;DHT22;7330;50.804;4.550;2024-03-07T12:57:39;12.30;99.90
14489;DHT22;7330;50.804;4.550;2024-03-07T13:02:44;12.20;99.90
14489;DHT22;7330;50.804;4.550;2024-03-07T13:05:11;12.30;99.90
14489;DHT22;7330;50.804;4.550;2024-03-07T13:10:11;12.40;99.90
14489;DHT22;7330;50.804;4.550;2024-03-07T13:15:10;12.40;99.90
14489;DHT22;7330;50.804;4.550;2024-03-07T13:17:37;12.50;99.90
14489;DHT22;7330;50.804;4.550;2024-03-07T13:20:05;12.40;99.90
14489;DHT22;7330;50.804;4.550;2024-03-07T13:22:37;12.40;99.90
14489;DHT22;7330;50.804;4.550;2024-03-07T13:32:34;12.30;99.90
14489;DHT22;7330;50.804;4.550;2024-03-07T13:35:01;12.20;99.80
14489;DHT22;7330;50.804;4.550;2024-03-07T13:37:28;12.20;99.80
14489;DHT22;7330;50.804;4.550;2024-03-07T13:42:46;12.20;99.20
14489;DHT22;7330;50.804;4.550;2024-03-07T13:52:38;12.10;99.20
14489;DHT22;7330;50.804;4.550;2024-03-07T14:00:10;12.30;99.70
14489;DHT22;7330;50.804;4.550;2024-03-07T14:02:47;12.20;99.50
14489;DHT22;7330;50.804;4.550;2024-03-07T14:08:26;12.20;99.90
14489;DHT22;7330;50.804;4.550;2024-03-07T14:11:04;12.20;99.20
14489;DHT22;7330;50.804;4.550;2024-03-07T14:13:46;12.20;98.90
14489;DHT22;7330;50.804;4.550;2024-03-07T14:16:20;12.20;99.00
14489;DHT22;7330;50.804;4.550;2024-03-07T14:21:52;12.10;98.60
14489;DHT22;7330;50.804;4.550;2024-03-07T14:27:25;12.00;97.40
14489;DHT22;7330;50.804;4.550;2024-03-07T14:34:54;12.00;97.80
14489;DHT22;7330;50.804;4.550;2024-03-07T14:39:51;12.00;97.90
14489;DHT22;7330;50.804;4.550;2024-03-07T14:47:15;11.80;97.30
14489;DHT22;7330;50.804;4.550;2024-03-07T14:49:45;11.80;97.60
14489;DHT22;7330;50.804;4.550;2024-03-07T14:52:12;11.80;97.20
14489;DHT22;7330;50.804;4.550;2024-03-07T14:54:40;11.80;97.30
14489;DHT22;7330;50.804;4.550;2024-03-07T14:59:35;11.80;97.50
14489;DHT22;7330;50.804;4.550;2024-03-07T15:07:16;11.80;97.00
14489;DHT22;7330;50.804;4.550;2024-03-07T15:09:42;11.80;97.20
14489;DHT22;7330;50.804;4.550;2024-03-07T15:12:10;11.80;97.10
14489;DHT22;7330;50.804;4.550;2024-03-07T15:17:04;11.70;97.60
14489;DHT22;7330;50.804;4.550;2024-03-07T15:19:31;11.70;97.40
14489;DHT22;7330;50.804;4.550;2024-03-07T15:24:30;11.70;97.40
14489;DHT22;7330;50.804;4.550;2024-03-07T15:29:24;11.70;96.80
14489;DHT22;7330;50.804;4.550;2024-03-07T15:39:12;11.70;97.10
14489;DHT22;7330;50.804;4.550;2024-03-07T15:41:53;11.70;97.20
14489;DHT22;7330;50.804;4.550;2024-03-07T15:44:20;11.70;97.30
14489;DHT22;7330;50.804;4.550;2024-03-07T15:59:11;11.60;96.80
14489;DHT22;7330;50.804;4.550;2024-03-07T16:08:59;11.60;96.80
14489;DHT22;7330;50.804;4.550;2024-03-07T16:11:26;11.60;96.40
14489;DHT22;7330;50.804;4.550;2024-03-07T16:13:53;11.50;96.70
14489;DHT22;7330;50.804;4.550;2024-03-07T16:18:49;11.50;96.40
14489;DHT22;7330;50.804;4.550;2024-03-07T16:23:44;11.50;96.00
14489;DHT22;7330;50.804;4.550;2024-03-07T16:26:11;11.50;96.00
14489;DHT22;7330;50.804;4.550;2024-03-07T16:31:05;11.50;96.00
14489;DHT22;7330;50.804;4.550;2024-03-07T16:33:32;11.50;96.00
14489;DHT22;7330;50.804;4.550;2024-03-07T16:40:54;11.40;95.70
14489;DHT22;7330;50.804;4.550;2024-03-07T16:43:28;11.40;96.00
14489;DHT22;7330;50.804;4.550;2024-03-07T16:45:56;11.50;95.80
14489;DHT22;7330;50.804;4.550;2024-03-07T16:48:23;11.40;96.00
14489;DHT22;7330;50.804;4.550;2024-03-07T17:08:08;11.40;96.00
14489;DHT22;7330;50.804;4.550;2024-03-07T17:13:04;11.30;95.90
14489;DHT22;7330;50.804;4.550;2024-03-07T17:15:32;11.30;95.90
14489;DHT22;7330;50.804;4.550;2024-03-07T17:25:23;11.20;95.90
14489;DHT22;7330;50.804;4.550;2024-03-07T17:30:23;11.20;95.90
14489;DHT22;7330;50.804;4.550;2024-03-07T17:32:51;11.10;95.80
14489;DHT22;7330;50.804;4.550;2024-03-07T17:35:18;11.10;95.80
14489;DHT22;7330;50.804;4.550;2024-03-07T17:55:02;10.80;95.50
14489;DHT22;7330;50.804;4.550;2024-03-07T17:57:33;10.80;95.70
14489;DHT22;7330;50.804;4.550;2024-03-07T18:05:11;10.70;95.40
14489;DHT22;7330;50.804;4.550;2024-03-07T18:22:36;10.50;95.30
14489;DHT22;7330;50.804;4.550;2024-03-07T18:25:03;10.50;95.30
14489;DHT22;7330;50.804;4.550;2024-03-07T18:27:30;10.50;95.50
14489;DHT22;7330;50.804;4.550;2024-03-07T18:35:03;10.50;95.70
14489;DHT22;7330;50.804;4.550;2024-03-07T18:49:51;10.30;96.40
14489;DHT22;7330;50.804;4.550;2024-03-07T18:57:14;10.10;96.50
14489;DHT22;7330;50.804;4.550;2024-03-07T19:02:10;10.10;96.60
14489;DHT22;7330;50.804;4.550;2024-03-07T19:16:57;10.00;97.00
14489;DHT22;7330;50.804;4.550;2024-03-07T19:19:24;10.00;97.00
14489;DHT22;7330;50.804;4.550;2024-03-07T19:21:55;10.00;97.00
14489;DHT22;7330;50.804;4.550;2024-03-07T19:26:50;9.90;97.70
14489;DHT22;7330;50.804;4.550;2024-03-07T19:31:47;9.90;97.80
14489;DHT22;7330;50.804;4.550;2024-03-07T19:34:15;9.80;97.80
14489;DHT22;7330;50.804;4.550;2024-03-07T19:36:47;9.80;97.90
14489;DHT22;7330;50.804;4.550;2024-03-07T19:39:15;9.80;98.00
14489;DHT22;7330;50.804;4.550;2024-03-07T19:41:45;9.70;98.10
14489;DHT22;7330;50.804;4.550;2024-03-07T19:44:12;9.70;98.20
14489;DHT22;7330;50.804;4.550;2024-03-07T19:46:39;9.70;98.30
14489;DHT22;7330;50.804;4.550;2024-03-07T19:51:36;9.70;98.30
14489;DHT22;7330;50.804;4.550;2024-03-07T19:58:57;9.60;98.60
14489;DHT22;7330;50.804;4.550;2024-03-07T20:13:42;9.40;98.80
14489;DHT22;7330;50.804;4.550;2024-03-07T20:30:53;9.20;98.90
14489;DHT22;7330;50.804;4.550;2024-03-07T20:33:21;9.20;99.00
14489;DHT22;7330;50.804;4.550;2024-03-07T20:43:13;9.10;99.10
14489;DHT22;7330;50.804;4.550;2024-03-07T20:45:42;9.00;99.10
14489;DHT22;7330;50.804;4.550;2024-03-07T20:48:11;9.00;99.10
14489;DHT22;7330;50.804;4.550;2024-03-07T20:55:34;8.90;99.30
14489;DHT22;7330;50.804;4.550;2024-03-07T20:58:01;8.90;99.30
14489;DHT22;7330;50.804;4.550;2024-03-07T21:10:21;8.70;99.90
14489;DHT22;7330;50.804;4.550;2024-03-07T21:17:45;8.70;99.90
14489;DHT22;7330;50.804;4.550;2024-03-07T21:20:12;8.70;99.90
14489;DHT22;7330;50.804;4.550;2024-03-07T21:32:31;8.60;99.90
14489;DHT22;7330;50.804;4.550;2024-03-07T21:34:58;8.60;99.90
14489;DHT22;7330;50.804;4.550;2024-03-07T21:39:51;8.50;99.90
14489;DHT22;7330;50.804;4.550;2024-03-07T21:42:20;8.50;99.90
14489;DHT22;7330;50.804;4.550;2024-03-07T21:49:43;8.50;99.90
14489;DHT22;7330;50.804;4.550;2024-03-07T21:59:32;8.40;99.90
14489;DHT22;7330;50.804;4.550;2024-03-07T22:01:59;8.40;99.90
14489;DHT22;7330;50.804;4.550;2024-03-07T22:06:54;8.40;99.90
14489;DHT22;7330;50.804;4.550;2024-03-07T22:11:49;8.30;99.90
14489;DHT22;7330;50.804;4.550;2024-03-07T22:19:13;8.30;99.90
14489;DHT22;7330;50.804;4.550;2024-03-07T22:21:40;8.20;99.90
14489;DHT22;7330;50.804;4.550;2024-03-07T22:26:36;8.30;99.90
14489;DHT22;7330;50.804;4.550;2024-03-07T22:41:20;8.20;99.90
14489;DHT22;7330;50.804;4.550;2024-03-07T22:46:15;8.10;99.90
14489;DHT22;7330;50.804;4.550;2024-03-07T22:48:43;8.10;99.90
14489;DHT22;7330;50.804;4.550;2024-03-07T22:51:10;8.10;99.90
14489;DHT22;7330;50.804;4.550;2024-03-07T22:56:04;8.10;99.90
14489;DHT22;7330;50.804;4.550;2024-03-07T23:10:49;8.00;99.90
14489;DHT22;7330;50.804;4.550;2024-03-07T23:18:11;8.00;99.90
14489;DHT22;7330;50.804;4.550;2024-03-07T23:23:06;8.00;99.90
14489;DHT22;7330;50.804;4.550;2024-03-07T23:28:03;7.90;99.90
14489;DHT22;7330;50.804;4.550;2024-03-07T23:32:57;7.90;99.90
14489;DHT22;7330;50.804;4.550;2024-03-07T23:40:19;7.80;99.90
14489;DHT22;7330;50.804;4.550;2024-03-07T23:42:46;7.80;99.90
14489;DHT22;7330;50.804;4.550;2024-03-07T23:45:15;7.70;99.90
14489;DHT22;7330;50.804;4.550;2024-03-07T23:50:12;7.60;99.90
14489;DHT22;7330;50.804;4.550;2024-03-07T23:57:32;7.60;99.90
